Latest Coastal Weather Observations for Wynyard

IDV60701

Issued at 4:15 am EST Sunday 31 August 2014 (issued every 10 minutes, with the page automatically refreshed every 10 minutes)

About coastal observations | Map of coastal stations | Coastal observations for VIC | Marine services | Other Formats
Station Details ID: 091107 Name: WYNYARD AIRPORT Lat: -41.00 Lon: 145.73 Height: 12.0 m
Data from the previous 72 hours. | See also: Recent months at Wynyard
Date/Time
EST
Temp

°C
Wind Pressure Rain
since 9am
mm
Weather Cloud Vis
km
Sea
Height
m
Swell
Dir
 
Speed
knots
Gust
knots
hPa Trend Height
m
Period
s
Dir
31/04:00am 11.4 E 9 15 1019.0 - 0.0 - Cloudy 10 - - - -
31/03:30am 11.5 E 9 12 1019.7 - 0.0 - Partly cloudy 10 - - - -
31/03:00am 11.4 E 11 14 1019.9 - 0.0 - Cloudy 10 - - - -
31/02:30am 11.6 E 9 13 1020.3 - 0.0 - Partly cloudy 10 - - - -
31/02:00am 11.6 E 11 13 1021.0 - 0.0 - Partly cloudy 10 - - - -
31/01:30am 11.5 E 8 11 1021.3 - 0.0 - Partly cloudy 10 - - - -
31/01:00am 11.6 ESE 10 12 1021.6 - 0.0 - Partly cloudy 10 - - - -
31/12:30am 11.6 ESE 10 13 1021.8 - 0.0 - Partly cloudy 10 - - - -
31/12:00am 11.7 ESE 10 14 1021.9 - 0.0 - Cloudy 10 - - - -
 
Date/Time
EST
Temp

°C
Wind Pressure Rain
since 9am
mm
Weather Cloud Vis
km
Sea
Height
m
Swell
Dir
 
Speed
knots
Gust
knots
hPa Trend Height
m
Period
s
Dir
30/11:30pm 11.6 ESE 11 15 1021.9 - 0.0 - Partly cloudy 10 - - - -
30/11:00pm 11.3 ESE 9 14 1022.2 - 0.0 - Partly cloudy 10 - - - -
30/10:43pm 11.1 ESE 9 12 1022.6 - 0.0 - Partly cloudy 10 - - - -
30/10:33pm 11.1 ESE 9 12 1022.7 - 0.0 - Partly cloudy 10 - - - -
30/10:30pm 11.1 ESE 9 12 1022.8 - 0.0 - Partly cloudy 10 - - - -
30/10:00pm 11.2 ESE 8 10 1023.4 - 0.0 - Cloudy 10 - - - -
30/09:30pm 11.1 ESE 7 9 1023.6 - 0.0 - Cloudy 10 - - - -
30/09:00pm 10.7 ESE 8 11 1023.7 - 0.0 - Mostly cloudy 10 - - - -
30/08:30pm 10.1 SE 7 10 1023.8 - 0.0 - - 10 - - - -
30/08:00pm 11.0 E 10 12 1023.8 - 0.0 - - 10 - - - -
30/07:30pm 11.1 E 9 13 1023.8 - 0.0 - - 10 - - - -
30/07:00pm 10.9 E 8 10 1023.7 - 0.0 - - 10 - - - -
30/06:30pm 11.1 E 8 12 1023.7 - 0.0 - - 10 - - - -
30/06:00pm 11.0 E 7 9 1023.9 - 0.0 - - 10 - - - -
30/05:30pm 11.8 E 8 12 1023.9 - 0.0 - - 10 - - - -
30/05:00pm 12.4 E 8 13 1024.0 - 0.0 - Partly cloudy 10 - - - -
30/04:30pm 12.5 E 8 12 1024.4 - 0.0 - Partly cloudy 10 - - - -
30/04:00pm 13.4 E 9 13 1024.6 - 0.0 - Partly cloudy 10 - - - -
30/03:30pm 13.4 ENE 9 12 1024.8 - 0.0 - Partly cloudy 10 - - - -
30/03:00pm 13.1 ENE 10 14 1024.9 - 0.0 - Partly cloudy 10 - - - -
30/02:39pm 13.4 ENE 9 13 1025.0 - 0.0 - Partly cloudy 10 - - - -
30/02:30pm 13.6 E 9 14 1025.1 - 0.0 - Partly cloudy 10 - - - -
30/02:00pm 13.3 E 11 15 1025.4 - 0.0 - Partly cloudy 10 - - - -
30/01:56pm 13.4 E 10 15 1025.5 - 0.0 - Partly cloudy 10 - - - -
30/01:30pm 13.7 E 9 14 1025.6 - 0.0 - Partly cloudy 10 - - - -
30/01:00pm 14.7 E 9 15 1026.0 - 0.0 - Partly cloudy 10 - - - -
30/12:31pm 13.3 E 10 14 1026.4 - 0.0 - Partly cloudy 10 - - - -
30/12:30pm 13.0 E 11 14 1026.4 - 0.0 - Partly cloudy 10 - - - -
30/12:04pm 13.7 E 12 15 1026.9 - 0.0 - Partly cloudy 10 - - - -
30/12:00pm 13.3 E 11 15 1026.9 - 0.0 - Cloudy 10 - - - -
30/11:30am 13.1 E 11 15 1027.3 - 0.0 - Partly cloudy 10 - - - -
30/11:00am 13.8 E 10 15 1027.5 - 0.0 - Partly cloudy 10 - - - -
30/10:30am 13.0 E 10 15 1027.8 - 0.0 - Partly cloudy 10 - - - -
30/10:00am 13.0 E 10 14 1028.2 - 0.0 - Cloudy 10 - - - -
30/09:30am 12.4 E 10 14 1028.4 - 0.0 - Partly cloudy 10 - - - -
30/09:00am 11.9 E 10 14 1028.7 - 0.0 - Mostly cloudy 10 - - - -
30/08:43am 11.7 E 9 12 1028.9 - 0.0 - Partly cloudy 10 - - - -
30/08:30am 9.9 SW 2 4 1029.0 - 0.0 - Partly cloudy 10 - - - -
30/08:08am 8.7 WNW 3 4 1029.2 - 0.0 - Partly cloudy 10 - - - -
30/08:00am 8.2 WNW 4 4 1029.2 - 0.0 - Partly cloudy 10 - - - -
30/07:45am 7.8 WNW 4 5 1029.2 - 0.0 - Partly cloudy 10 - - - -
30/07:30am 7.0 W 4 5 1029.2 - 0.0 - Partly cloudy 10 - - - -
30/07:00am 6.1 NW 3 5 1028.9 - 0.0 - Cloudy 10 - - - -
30/06:30am 6.2 W 5 6 1028.9 - 0.0 - Cloudy 10 - - - -
30/06:00am 5.9 WNW 4 5 1028.7 - 0.0 - Mostly cloudy 10 - - - -
30/05:30am 4.5 W 5 5 1028.6 - 0.0 - Cloudy 10 - - - -
30/05:08am 3.8 WNW 5 6 1028.5 - 0.0 - Partly cloudy 10 - - - -
30/05:00am 3.6 WNW 5 5 1028.5 - 0.0 - Partly cloudy 10 - - - -
30/04:30am 3.2 W 6 6 1028.6 - 0.0 - - 10 - - - -
30/04:00am 3.5 WNW 5 6 1028.5 - 0.0 - - 10 - - - -
30/03:30am 4.1 WNW 5 6 1028.7 - 0.0 - - 10 - - - -
30/03:00am 3.7 W 5 6 1028.9 - 0.0 - - 10 - - - -
30/02:47am 3.5 W 5 6 1029.0 - 0.0 - - 10 - - - -
30/02:30am 3.5 W 5 5 1029.1 - 0.0 - - 3 - - - -
30/02:22am 3.9 W 4 5 1029.2 - 0.0 - - 5 - - - -
30/02:00am 3.9 W 5 5 1029.4 - 0.0 - - 9 - - - -
30/01:30am 4.6 W 4 4 1029.6 - 0.0 - - 10 - - - -
30/01:00am 4.2 W 4 5 1029.9 - 0.0 - - 10 - - - -
30/12:40am 4.7 W 4 5 1029.8 - 0.0 - - 8 - - - -
30/12:30am 5.0 W 4 5 1029.8 - 0.0 - - 5 - - - -
30/12:27am 4.3 W 4 5 1029.8 - 0.0 - - 5 - - - -
30/12:00am 5.7 W 5 5 1029.9 - 0.0 - - 10 - - - -
 
Date/Time
EST
Temp

°C
Wind Pressure Rain
since 9am
mm
Weather Cloud Vis
km
Sea
Height
m
Swell
Dir
 
Speed
knots
Gust
knots
hPa Trend Height
m
Period
s
Dir
29/11:48pm 5.0 W 4 4 1029.9 - 0.0 - - 9 - - - -
29/11:30pm 5.4 W 4 5 1029.9 - 0.0 - - 2 - - - -
29/11:00pm 5.8 W 5 5 1029.8 - 0.0 - - 5 - - - -
29/10:36pm 7.0 WNW 4 5 1029.9 - 0.0 - - 5 - - - -
29/10:30pm 7.1 WSW 4 4 1029.9 - 0.0 - - 10 - - - -
29/10:00pm 5.7 SW 5 6 1030.1 - 0.0 - - 10 - - - -
29/09:40pm 6.5 SW 5 6 1030.0 - 0.0 - - 5 - - - -
29/09:30pm 6.4 WSW 4 4 1030.0 - 0.0 - - 10 - - - -
29/09:04pm 7.0 SW 4 5 1029.9 - 0.0 - - 10 - - - -
29/09:00pm 7.9 SW 4 5 1029.9 - 0.0 - - 10 - - - -
29/08:51pm 7.5 SW 5 6 1029.8 - 0.0 - - 5 - - - -
29/08:39pm 7.9 SSW 5 6 1029.8 - 0.0 - - 10 - - - -
29/08:30pm 7.7 S 1 5 1029.8 - 0.0 - - 6 - - - -
29/08:24pm 8.1 CALM 0 0 1029.7 - 0.0 - - 5 - - - -
29/08:05pm 8.6 CALM 0 0 1029.7 - 0.0 - - 10 - - - -
29/08:00pm 9.4 CALM 0 3 1029.7 - 0.0 - - 10 - - - -
29/07:47pm 9.2 CALM 0 0 1029.7 - 0.0 - Partly cloudy 5 - - - -
29/07:30pm 9.6 S 3 4 1029.6 - 0.0 - Partly cloudy 10 - - - -
29/07:00pm 11.5 CALM 0 0 1029.5 - 0.0 - Partly cloudy 10 - - - -
29/06:30pm 11.8 CALM 0 0 1029.5 - 0.0 - Cloudy 10 - - - -
29/06:00pm 11.9 ESE 4 4 1029.2 - 0.0 - Cloudy 10 - - - -
29/05:30pm 12.3 E 2 3 1029.1 - 0.0 - Cloudy 10 - - - -
29/05:00pm 12.5 NE 2 3 1029.1 - 0.0 - Partly cloudy 10 - - - -
29/04:30pm 13.0 NE 3 5 1029.0 - 0.0 - - 10 - - - -
29/04:00pm 13.2 NE 6 7 1028.8 - 0.0 - - 10 - - - -
29/03:30pm 13.2 NE 6 8 1028.7 - 0.0 - - 10 - - - -
29/03:00pm 13.4 NE 6 8 1028.8 - 0.0 - - 10 - - - -
29/02:30pm 13.5 NE 7 10 1028.8 - 0.0 - - 10 - - - -
29/02:00pm 13.9 ENE 7 9 1029.1 - 0.0 - Partly cloudy 10 - - - -
29/01:30pm 13.5 NE 7 10 1029.3 - 0.0 - - 10 - - - -
29/01:00pm 13.3 NE 7 10 1029.3 - 0.0 - - 10 - - - -
29/12:30pm 13.6 NE 8 10 1029.4 - 0.0 - - 10 - - - -
29/12:00pm 13.9 NE 7 9 1029.8 - 0.0 - - 10 - - - -
29/11:30am 13.7 ENE 6 9 1030.1 - 0.0 - - 10 - - - -
29/11:00am 13.5 ENE 7 9 1030.0 - 0.0 - - 10 - - - -
29/10:30am 13.3 ENE 7 9 1030.1 - 0.0 - Partly cloudy 10 - - - -
29/10:00am 13.3 E 6 8 1030.2 - 0.0 - Partly cloudy 10 - - - -
29/09:30am 12.6 SE 4 5 1030.4 - 0.0 - Partly cloudy 10 - - - -
29/09:16am 12.9 SSE 5 6 1030.4 - 0.0 - Partly cloudy 10 - - - -
29/09:00am 12.1 SE 5 6 1030.4 - 0.2 - Partly cloudy 10 - - - -
29/08:36am 11.1 SSW 1 3 1030.2 - 0.2 - Partly cloudy 10 - - - -
29/08:30am 10.8 SW 2 3 1030.1 - 0.2 - Partly cloudy 10 - - - -
29/08:00am 8.5 CALM 0 0 1029.9 - 0.2 - Partly cloudy 10 - - - -
29/07:30am 9.3 CALM 0 0 1029.6 - 0.2 - Partly cloudy 10 - - - -
29/07:13am 8.9 WSW 2 4 1029.5 - 0.2 - Partly cloudy 10 - - - -
29/07:00am 8.8 WSW 2 3 1029.4 - 0.2 - Partly cloudy 10 - - - -
29/06:30am 8.5 WSW 5 6 1029.1 - 0.2 - Cloudy 10 - - - -
29/06:00am 7.2 WSW 4 5 1028.8 - 0.2 - Partly cloudy 10 - - - -
29/05:56am 7.3 WSW 5 6 1028.8 - 0.2 - Partly cloudy 10 - - - -
29/05:30am 6.0 WSW 4 5 1028.5 - 0.2 - - 10 - - - -
29/05:00am 7.3 S 4 4 1028.5 - 0.2 - - 10 - - - -
29/04:40am 9.1 SSE 3 4 1028.5 - 0.2 - Partly cloudy 10 - - - -
29/04:30am 9.2 SSE 3 4 1028.5 - 0.2 - Partly cloudy 10 - - - -
29/04:00am 10.0 ESE 5 7 1028.3 - 0.2 - Partly cloudy 10 - - - -
29/03:30am 10.3 S 4 6 1028.2 - 0.2 - Cloudy 10 - - - -
29/03:00am 10.1 SSE 5 6 1028.3 - 0.2 - Mostly cloudy 10 - - - -
29/02:30am 10.1 SE 3 4 1028.5 - 0.2 - Partly cloudy 10 - - - -
29/02:00am 10.4 SSE 1 3 1028.7 - 0.2 - Partly cloudy 10 - - - -
29/01:30am 10.6 SSE 4 5 1028.8 - 0.2 - Partly cloudy 10 - - - -
29/01:19am 10.8 SSE 5 6 1028.8 - 0.2 - Partly cloudy 10 - - - -
29/01:15am 10.8 SSE 5 6 1028.8 - 0.2 - Partly cloudy 10 - - - -
29/01:00am 10.9 ESE 4 5 1028.8 - 0.2 - Partly cloudy 10 - - - -
29/12:30am 10.9 S 5 6 1028.8 - 0.2 - Cloudy 10 - - - -
29/12:04am 10.7 S 5 6 1028.7 - 0.2 - Partly cloudy 10 - - - -
29/12:00am 10.7 S 5 7 1028.7 - 0.2 - Cloudy 10 - - - -
 
Date/Time
EST
Temp

°C
Wind Pressure Rain
since 9am
mm
Weather Cloud Vis
km
Sea
Height
m
Swell
Dir
 
Speed
knots
Gust
knots
hPa Trend Height
m
Period
s
Dir
28/11:30pm 11.0 SSE 3 5 1028.8 - 0.2 - Partly cloudy 10 - - - -
28/11:00pm 11.1 ESE 9 10 1028.9 - 0.2 - Partly cloudy 10 - - - -
28/10:56pm 11.1 ESE 9 10 1028.8 - 0.2 - Partly cloudy 10 - - - -
28/10:30pm 10.3 SSE 5 6 1028.9 - 0.2 - Partly cloudy 10 - - - -
28/10:19pm 9.7 SSE 5 6 1028.8 - 0.2 - Partly cloudy 10 - - - -
28/10:00pm 9.9 SSE 5 5 1028.9 - 0.2 - Partly cloudy 10 - - - -
28/09:30pm 9.9 SSE 5 5 1028.9 - 0.2 - Partly cloudy 10 - - - -
28/09:00pm 9.6 ESE 3 4 1028.9 - 0.2 - Mostly clear 10 - - - -
28/08:30pm 9.7 ESE 4 5 1028.8 - 0.2 - Partly cloudy 10 - - - -
28/08:00pm 10.8 ESE 4 6 1028.7 - 0.2 - Partly cloudy 10 - - - -
28/07:30pm 11.4 E 5 6 1028.5 - 0.2 - Partly cloudy 10 - - - -
28/07:00pm 11.6 E 5 7 1028.4 - 0.2 - Partly cloudy 10 - - - -
28/06:30pm 11.4 E 4 5 1028.4 - 0.2 - Partly cloudy 10 - - - -
28/06:00pm 12.5 E 4 6 1028.3 - 0.2 - Mostly cloudy 10 - - - -
28/05:53pm 12.5 E 5 7 1028.3 - 0.2 - Partly cloudy 10 - - - -
28/05:30pm 12.8 ENE 4 6 1028.2 - 0.2 - Partly cloudy 10 - - - -
28/05:00pm 13.1 E 4 7 1028.0 - 0.2 - Partly cloudy 10 - - - -
28/04:53pm 13.0 E 5 8 1028.0 - 0.2 - Partly cloudy 10 - - - -
28/04:30pm 13.1 E 7 9 1027.9 - 0.2 - Partly cloudy 10 - - - -
28/04:00pm 14.1 ENE 6 9 1027.8 - 0.2 - Partly cloudy 10 - - - -
28/03:30pm 14.2 E 7 10 1027.8 - 0.0 - Partly cloudy 10 - - - -
28/03:00pm 14.1 ENE 8 12 1027.8 - 0.0 - Cloudy 10 - - - -
28/02:30pm 13.9 E 7 10 1028.0 - 0.0 - Partly cloudy 10 - - - -
28/02:00pm 14.3 E 8 11 1028.1 - 0.0 - Partly cloudy 10 - - - -
28/01:30pm 14.5 E 7 9 1028.4 - 0.0 - - 10 - - - -
28/01:17pm 14.0 E 7 12 1028.5 - 0.0 - Partly cloudy 10 - - - -
28/01:00pm 14.4 E 8 11 1028.7 - 0.0 - Partly cloudy 10 - - - -
28/12:49pm 14.0 E 7 11 1028.8 - 0.0 - Partly cloudy 10 - - - -
28/12:30pm 15.0 ENE 8 11 1029.0 - 0.0 - Partly cloudy 10 - - - -
28/12:26pm 14.3 ENE 8 11 1029.0 - 0.0 - Partly cloudy 10 - - - -
28/12:00pm 14.3 E 7 11 1029.3 - 0.0 - Cloudy 10 - - - -
28/11:30am 13.8 E 7 12 1029.7 - 0.0 - Partly cloudy 10 - - - -
28/11:10am 13.4 E 7 11 1029.7 - 0.0 - Partly cloudy 10 - - - -
28/11:00am 13.0 E 7 11 1029.8 - 0.0 - Partly cloudy 10 - - - -
28/10:43am 13.0 E 6 10 1029.8 - 0.0 - Partly cloudy 10 - - - -
28/10:30am 13.7 ENE 8 11 1029.8 - 0.0 - Partly cloudy 10 - - - -
28/10:00am 13.0 E 8 12 1029.9 - 0.0 - Partly cloudy 10 - - - -
28/09:30am 12.8 E 7 12 1030.0 - 0.0 - Partly cloudy 10 - - - -
28/09:00am 12.1 E 9 12 1029.8 - 0.0 - Cloudy 10 - - - -
28/08:30am 11.9 E 9 13 1029.8 - 0.0 - Partly cloudy 10 - - - -
28/08:03am 11.7 ESE 9 12 1029.6 - 0.0 - Partly cloudy 10 - - - -
28/08:00am 11.7 E 9 12 1029.6 - 0.0 - Partly cloudy 10 - - - -
28/07:34am 11.6 E 9 13 1029.4 - 0.0 - Partly cloudy 10 - - - -
28/07:30am 11.6 E 10 13 1029.3 - 0.0 - Partly cloudy 10 - - - -
28/07:00am 11.5 E 8 12 1029.2 - 0.0 - Partly cloudy 10 - - - -
28/06:59am 11.5 E 8 12 1029.2 - 0.0 - Partly cloudy 10 - - - -
28/06:30am 11.4 E 8 11 1029.0 - 0.0 - Partly cloudy 10 - - - -
28/06:00am 11.4 E 7 10 1029.0 - 0.0 - Cloudy 10 - - - -
28/05:30am 11.5 E 7 11 1028.7 - 0.0 - Partly cloudy 10 - - - -
28/05:00am 11.5 E 8 11 1028.8 - 0.0 - Partly cloudy 10 - - - -
28/04:52am 11.6 E 8 12 1028.7 - 0.0 - Partly cloudy 10 - - - -
28/04:30am 11.7 E 8 10 1028.8 - 0.0 - Partly cloudy 10 - - - -

Other Formats:

Comma delimited format used in spreadsheet applications
http://www.bom.gov.au/fwo/IDV60701/IDV60701.95957.axf

JavaScript Object Notation format (JSON) in row-major order
http://www.bom.gov.au/fwo/IDV60701/IDV60701.95957.json